sensor_id;sensor_type;location;lat;lon;timestamp;temperature;humidity
65989;HTU21D;53592;51.402;6.054;2022-10-16T00:00:42;14.34;85.80
65989;HTU21D;53592;51.402;6.054;2022-10-16T00:03:08;14.32;85.79
65989;HTU21D;53592;51.402;6.054;2022-10-16T00:05:39;14.32;85.86
65989;HTU21D;53592;51.402;6.054;2022-10-16T00:08:05;14.27;85.97
65989;HTU21D;53592;51.402;6.054;2022-10-16T00:10:31;14.26;86.09
65989;HTU21D;53592;51.402;6.054;2022-10-16T00:12:56;14.25;86.05
65989;HTU21D;53592;51.402;6.054;2022-10-16T00:15:22;14.27;86.13
65989;HTU21D;53592;51.402;6.054;2022-10-16T00:17:47;14.25;86.22
65989;HTU21D;53592;51.402;6.054;2022-10-16T00:20:13;14.28;86.25
65989;HTU21D;53592;51.402;6.054;2022-10-16T00:22:38;14.33;86.09
65989;HTU21D;53592;51.402;6.054;2022-10-16T00:25:05;14.30;86.22
65989;HTU21D;53592;51.402;6.054;2022-10-16T00:27:31;14.34;86.12
65989;HTU21D;53592;51.402;6.054;2022-10-16T00:29:56;14.35;86.24
65989;HTU21D;53592;51.402;6.054;2022-10-16T00:32:22;14.38;86.11
65989;HTU21D;53592;51.402;6.054;2022-10-16T00:34:47;14.42;85.96
65989;HTU21D;53592;51.402;6.054;2022-10-16T00:37:13;14.43;85.90
65989;HTU21D;53592;51.402;6.054;2022-10-16T00:39:38;14.44;85.94
65989;HTU21D;53592;51.402;6.054;2022-10-16T00:42:05;14.44;86.09
65989;HTU21D;53592;51.402;6.054;2022-10-16T00:52:32;14.48;85.61
65989;HTU21D;53592;51.402;6.054;2022-10-16T00:54:58;14.49;85.48
65989;HTU21D;53592;51.402;6.054;2022-10-16T00:57:25;14.50;85.29
65989;HTU21D;53592;51.402;6.054;2022-10-16T00:59:51;14.45;85.30
65989;HTU21D;53592;51.402;6.054;2022-10-16T01:02:17;14.43;85.42
65989;HTU21D;53592;51.402;6.054;2022-10-16T01:04:49;14.41;85.41
65989;HTU21D;53592;51.402;6.054;2022-10-16T01:12:57;14.36;85.16
65989;HTU21D;53592;51.402;6.054;2022-10-16T01:15:29;14.35;84.97
65989;HTU21D;53592;51.402;6.054;2022-10-16T01:18:14;14.30;85.00
65989;HTU21D;53592;51.402;6.054;2022-10-16T01:20:53;14.25;85.04
65989;HTU21D;53592;51.402;6.054;2022-10-16T01:31:29;14.06;85.59
65989;HTU21D;53592;51.402;6.054;2022-10-16T01:34:20;14.04;85.70
65989;HTU21D;53592;51.402;6.054;2022-10-16T01:37:01;14.03;85.67
65989;HTU21D;53592;51.402;6.054;2022-10-16T01:39:32;13.98;85.70
65989;HTU21D;53592;51.402;6.054;2022-10-16T01:42:24;13.99;85.64
65989;HTU21D;53592;51.402;6.054;2022-10-16T01:44:54;13.98;85.60
65989;HTU21D;53592;51.402;6.054;2022-10-16T01:47:24;13.96;85.66
65989;HTU21D;53592;51.402;6.054;2022-10-16T01:49:52;13.94;85.63
65989;HTU21D;53592;51.402;6.054;2022-10-16T01:52:23;13.93;85.57
65989;HTU21D;53592;51.402;6.054;2022-10-16T01:54:53;13.94;85.36
65989;HTU21D;53592;51.402;6.054;2022-10-16T01:57:22;13.88;85.50
65989;HTU21D;53592;51.402;6.054;2022-10-16T01:59:54;13.85;85.67
65989;HTU21D;53592;51.402;6.054;2022-10-16T02:02:22;13.84;85.61
65989;HTU21D;53592;51.402;6.054;2022-10-16T02:05:02;13.80;85.75
65989;HTU21D;53592;51.402;6.054;2022-10-16T02:07:30;13.81;85.69
65989;HTU21D;53592;51.402;6.054;2022-10-16T02:09:56;13.80;85.87
65989;HTU21D;53592;51.402;6.054;2022-10-16T02:14:47;13.79;85.74
65989;HTU21D;53592;51.402;6.054;2022-10-16T02:17:16;13.76;85.86
65989;HTU21D;53592;51.402;6.054;2022-10-16T02:19:44;13.78;85.75
65989;HTU21D;53592;51.402;6.054;2022-10-16T02:22:30;13.75;85.75
65989;HTU21D;53592;51.402;6.054;2022-10-16T02:27:44;13.76;85.69
65989;HTU21D;53592;51.402;6.054;2022-10-16T02:32:57;13.78;85.56
65989;HTU21D;53592;51.402;6.054;2022-10-16T02:35:24;13.79;85.52
65989;HTU21D;53592;51.402;6.054;2022-10-16T02:37:52;13.78;85.35
65989;HTU21D;53592;51.402;6.054;2022-10-16T02:40:20;13.77;85.45
65989;HTU21D;53592;51.402;6.054;2022-10-16T02:42:50;13.79;85.38
65989;HTU21D;53592;51.402;6.054;2022-10-16T02:45:17;13.79;85.53
65989;HTU21D;53592;51.402;6.054;2022-10-16T02:47:42;13.80;85.44
65989;HTU21D;53592;51.402;6.054;2022-10-16T02:50:08;13.78;85.57
65989;HTU21D;53592;51.402;6.054;2022-10-16T02:52:33;13.77;85.66
65989;HTU21D;53592;51.402;6.054;2022-10-16T02:54:59;13.79;85.57
65989;HTU21D;53592;51.402;6.054;2022-10-16T02:57:24;13.79;85.35
65989;HTU21D;53592;51.402;6.054;2022-10-16T02:59:50;13.79;85.53
65989;HTU21D;53592;51.402;6.054;2022-10-16T03:02:16;13.82;85.42
65989;HTU21D;53592;51.402;6.054;2022-10-16T03:04:41;13.80;85.54
65989;HTU21D;53592;51.402;6.054;2022-10-16T03:07:07;13.81;85.65
65989;HTU21D;53592;51.402;6.054;2022-10-16T03:09:33;13.82;85.74
65989;HTU21D;53592;51.402;6.054;2022-10-16T03:11:58;13.82;85.58
65989;HTU21D;53592;51.402;6.054;2022-10-16T03:14:24;13.85;85.55
65989;HTU21D;53592;51.402;6.054;2022-10-16T03:16:50;13.85;85.36
65989;HTU21D;53592;51.402;6.054;2022-10-16T03:19:18;13.82;85.49
65989;HTU21D;53592;51.402;6.054;2022-10-16T03:21:44;13.85;85.38
65989;HTU21D;53592;51.402;6.054;2022-10-16T03:24:10;13.84;85.55
65989;HTU21D;53592;51.402;6.054;2022-10-16T03:26:36;13.84;85.45
65989;HTU21D;53592;51.402;6.054;2022-10-16T03:29:02;13.85;85.45
65989;HTU21D;53592;51.402;6.054;2022-10-16T03:31:28;13.83;85.40
65989;HTU21D;53592;51.402;6.054;2022-10-16T03:33:54;13.86;85.43
65989;HTU21D;53592;51.402;6.054;2022-10-16T03:36:19;13.83;85.43
65989;HTU21D;53592;51.402;6.054;2022-10-16T03:38:45;13.85;85.54
65989;HTU21D;53592;51.402;6.054;2022-10-16T03:41:10;13.88;85.48
65989;HTU21D;53592;51.402;6.054;2022-10-16T03:43:36;13.85;85.66
65989;HTU21D;53592;51.402;6.054;2022-10-16T03:46:01;13.88;85.57
65989;HTU21D;53592;51.402;6.054;2022-10-16T03:48:27;13.88;85.66
65989;HTU21D;53592;51.402;6.054;2022-10-16T03:50:52;13.93;85.58
65989;HTU21D;53592;51.402;6.054;2022-10-16T03:53:18;13.94;85.49
65989;HTU21D;53592;51.402;6.054;2022-10-16T03:55:44;13.92;85.57
65989;HTU21D;53592;51.402;6.054;2022-10-16T03:58:10;13.95;85.55
65989;HTU21D;53592;51.402;6.054;2022-10-16T04:00:42;13.95;85.54
65989;HTU21D;53592;51.402;6.054;2022-10-16T04:03:09;13.94;85.58
65989;HTU21D;53592;51.402;6.054;2022-10-16T04:05:34;13.94;85.60
65989;HTU21D;53592;51.402;6.054;2022-10-16T04:08:00;13.92;85.71
65989;HTU21D;53592;51.402;6.054;2022-10-16T04:10:25;13.94;85.61
65989;HTU21D;53592;51.402;6.054;2022-10-16T04:12:51;13.93;85.74
65989;HTU21D;53592;51.402;6.054;2022-10-16T04:15:16;13.91;85.68
65989;HTU21D;53592;51.402;6.054;2022-10-16T04:17:42;13.92;85.77
65989;HTU21D;53592;51.402;6.054;2022-10-16T04:20:08;13.98;85.55
65989;HTU21D;53592;51.402;6.054;2022-10-16T04:22:33;13.93;85.71
65989;HTU21D;53592;51.402;6.054;2022-10-16T04:24:59;13.94;85.73
65989;HTU21D;53592;51.402;6.054;2022-10-16T04:27:24;13.93;85.84
65989;HTU21D;53592;51.402;6.054;2022-10-16T04:29:50;13.94;85.84
65989;HTU21D;53592;51.402;6.054;2022-10-16T04:32:15;13.93;85.86
65989;HTU21D;53592;51.402;6.054;2022-10-16T04:34:41;13.96;85.87
65989;HTU21D;53592;51.402;6.054;2022-10-16T04:37:06;13.97;85.80
65989;HTU21D;53592;51.402;6.054;2022-10-16T04:39:32;13.94;85.90
65989;HTU21D;53592;51.402;6.054;2022-10-16T04:41:57;13.94;85.98
65989;HTU21D;53592;51.402;6.054;2022-10-16T04:44:23;13.98;85.93
65989;HTU21D;53592;51.402;6.054;2022-10-16T04:46:50;14.03;85.67
65989;HTU21D;53592;51.402;6.054;2022-10-16T04:49:16;13.98;85.87
65989;HTU21D;53592;51.402;6.054;2022-10-16T04:51:41;13.99;85.86
65989;HTU21D;53592;51.402;6.054;2022-10-16T04:54:08;13.99;85.78
65989;HTU21D;53592;51.402;6.054;2022-10-16T04:56:34;14.05;85.64
65989;HTU21D;53592;51.402;6.054;2022-10-16T04:59:05;14.05;85.74
65989;HTU21D;53592;51.402;6.054;2022-10-16T05:01:31;14.05;85.80
65989;HTU21D;53592;51.402;6.054;2022-10-16T05:03:56;14.01;85.76
65989;HTU21D;53592;51.402;6.054;2022-10-16T05:06:22;14.03;85.75
65989;HTU21D;53592;51.402;6.054;2022-10-16T05:08:47;14.01;85.83
65989;HTU21D;53592;51.402;6.054;2022-10-16T05:11:13;14.03;85.83
65989;HTU21D;53592;51.402;6.054;2022-10-16T05:13:38;14.04;85.85
65989;HTU21D;53592;51.402;6.054;2022-10-16T05:16:04;14.05;85.77
65989;HTU21D;53592;51.402;6.054;2022-10-16T05:18:29;14.11;85.54
65989;HTU21D;53592;51.402;6.054;2022-10-16T05:20:55;14.05;85.75
65989;HTU21D;53592;51.402;6.054;2022-10-16T05:23:20;14.06;85.67
65989;HTU21D;53592;51.402;6.054;2022-10-16T05:25:53;14.03;85.75
65989;HTU21D;53592;51.402;6.054;2022-10-16T05:28:20;14.00;85.75
65989;HTU21D;53592;51.402;6.054;2022-10-16T05:30:45;13.98;85.80
65989;HTU21D;53592;51.402;6.054;2022-10-16T05:33:11;13.99;85.77
65989;HTU21D;53592;51.402;6.054;2022-10-16T05:35:36;14.00;85.64
65989;HTU21D;53592;51.402;6.054;2022-10-16T05:38:02;13.96;85.71
65989;HTU21D;53592;51.402;6.054;2022-10-16T05:40:27;13.97;85.74
65989;HTU21D;53592;51.402;6.054;2022-10-16T05:42:56;13.99;85.64
65989;HTU21D;53592;51.402;6.054;2022-10-16T05:45:22;13.96;85.70
65989;HTU21D;53592;51.402;6.054;2022-10-16T05:47:47;13.95;85.80
65989;HTU21D;53592;51.402;6.054;2022-10-16T05:50:13;13.94;85.88
65989;HTU21D;53592;51.402;6.054;2022-10-16T05:52:38;13.92;85.96
65989;HTU21D;53592;51.402;6.054;2022-10-16T05:55:04;13.90;85.91
65989;HTU21D;53592;51.402;6.054;2022-10-16T05:57:30;13.89;86.04
65989;HTU21D;53592;51.402;6.054;2022-10-16T05:59:55;13.89;86.03
65989;HTU21D;53592;51.402;6.054;2022-10-16T06:02:21;13.86;86.10
65989;HTU21D;53592;51.402;6.054;2022-10-16T06:04:46;13.84;86.20
65989;HTU21D;53592;51.402;6.054;2022-10-16T06:07:12;13.81;86.36
65989;HTU21D;53592;51.402;6.054;2022-10-16T06:09:37;13.81;86.36
65989;HTU21D;53592;51.402;6.054;2022-10-16T06:12:03;13.81;86.45
65989;HTU21D;53592;51.402;6.054;2022-10-16T06:14:29;13.80;86.45
65989;HTU21D;53592;51.402;6.054;2022-10-16T06:16:54;13.81;86.40
65989;HTU21D;53592;51.402;6.054;2022-10-16T06:19:20;13.80;86.38
65989;HTU21D;53592;51.402;6.054;2022-10-16T06:21:46;13.78;86.58
65989;HTU21D;53592;51.402;6.054;2022-10-16T06:24:12;13.76;86.60
65989;HTU21D;53592;51.402;6.054;2022-10-16T06:26:38;13.74;86.59
65989;HTU21D;53592;51.402;6.054;2022-10-16T06:29:04;13.75;86.61
65989;HTU21D;53592;51.402;6.054;2022-10-16T06:31:29;13.74;86.67
65989;HTU21D;53592;51.402;6.054;2022-10-16T06:33:57;13.76;86.54
65989;HTU21D;53592;51.402;6.054;2022-10-16T06:36:24;13.74;86.74
65989;HTU21D;53592;51.402;6.054;2022-10-16T06:38:50;13.73;86.73
65989;HTU21D;53592;51.402;6.054;2022-10-16T06:41:18;13.71;86.69
65989;HTU21D;53592;51.402;6.054;2022-10-16T06:43:44;13.70;86.78
65989;HTU21D;53592;51.402;6.054;2022-10-16T06:46:15;13.73;86.77
65989;HTU21D;53592;51.402;6.054;2022-10-16T06:48:41;13.74;86.74
65989;HTU21D;53592;51.402;6.054;2022-10-16T06:51:12;13.73;86.82
65989;HTU21D;53592;51.402;6.054;2022-10-16T06:53:45;13.75;86.74
65989;HTU21D;53592;51.402;6.054;2022-10-16T06:56:17;13.76;86.67
65989;HTU21D;53592;51.402;6.054;2022-10-16T06:58:43;13.78;86.57
65989;HTU21D;53592;51.402;6.054;2022-10-16T07:01:10;13.80;86.56
65989;HTU21D;53592;51.402;6.054;2022-10-16T07:03:37;13.80;86.88
65989;HTU21D;53592;51.402;6.054;2022-10-16T07:06:05;13.90;87.40
65989;HTU21D;53592;51.402;6.054;2022-10-16T07:08:36;14.08;87.70
65989;HTU21D;53592;51.402;6.054;2022-10-16T07:11:05;14.34;87.07
65989;HTU21D;53592;51.402;6.054;2022-10-16T07:13:34;14.50;86.32
65989;HTU21D;53592;51.402;6.054;2022-10-16T07:18:31;14.77;85.63
65989;HTU21D;53592;51.402;6.054;2022-10-16T07:21:05;14.93;85.29
65989;HTU21D;53592;51.402;6.054;2022-10-16T07:23:31;15.08;84.79
65989;HTU21D;53592;51.402;6.054;2022-10-16T07:25:56;15.23;83.98
65989;HTU21D;53592;51.402;6.054;2022-10-16T07:28:22;15.37;83.13
65989;HTU21D;53592;51.402;6.054;2022-10-16T07:30:48;15.43;82.36
65989;HTU21D;53592;51.402;6.054;2022-10-16T07:33:13;15.46;81.91
65989;HTU21D;53592;51.402;6.054;2022-10-16T07:35:48;15.49;81.74
65989;HTU21D;53592;51.402;6.054;2022-10-16T07:38:14;15.54;81.57
65989;HTU21D;53592;51.402;6.054;2022-10-16T07:40:39;15.58;81.27
65989;HTU21D;53592;51.402;6.054;2022-10-16T07:43:05;15.58;81.09
65989;HTU21D;53592;51.402;6.054;2022-10-16T07:45:30;15.58;81.43
65989;HTU21D;53592;51.402;6.054;2022-10-16T07:47:56;15.61;81.04
65989;HTU21D;53592;51.402;6.054;2022-10-16T07:50:21;15.61;81.03
65989;HTU21D;53592;51.402;6.054;2022-10-16T07:52:47;15.62;80.98
65989;HTU21D;53592;51.402;6.054;2022-10-16T07:55:12;15.60;81.04
65989;HTU21D;53592;51.402;6.054;2022-10-16T07:57:38;15.66;80.91
65989;HTU21D;53592;51.402;6.054;2022-10-16T08:00:04;15.63;81.09
65989;HTU21D;53592;51.402;6.054;2022-10-16T08:02:31;15.66;81.22
65989;HTU21D;53592;51.402;6.054;2022-10-16T08:04:56;15.70;80.88
65989;HTU21D;53592;51.402;6.054;2022-10-16T08:07:22;15.72;81.01
65989;HTU21D;53592;51.402;6.054;2022-10-16T08:09:49;15.75;81.38
65989;HTU21D;53592;51.402;6.054;2022-10-16T08:12:16;15.87;81.25
65989;HTU21D;53592;51.402;6.054;2022-10-16T08:14:41;16.03;80.75
65989;HTU21D;53592;51.402;6.054;2022-10-16T08:17:07;16.12;80.53
65989;HTU21D;53592;51.402;6.054;2022-10-16T08:19:32;16.25;79.66
65989;HTU21D;53592;51.402;6.054;2022-10-16T08:22:00;16.42;79.58
65989;HTU21D;53592;51.402;6.054;2022-10-16T08:24:26;16.49;79.35
65989;HTU21D;53592;51.402;6.054;2022-10-16T08:26:54;16.63;78.86
65989;HTU21D;53592;51.402;6.054;2022-10-16T08:29:19;16.74;78.43
65989;HTU21D;53592;51.402;6.054;2022-10-16T08:31:45;16.99;78.25
65989;HTU21D;53592;51.402;6.054;2022-10-16T08:34:10;17.20;77.80
65989;HTU21D;53592;51.402;6.054;2022-10-16T08:36:36;17.44;76.39
65989;HTU21D;53592;51.402;6.054;2022-10-16T08:39:01;17.63;75.72
65989;HTU21D;53592;51.402;6.054;2022-10-16T08:44:36;18.04;74.18
65989;HTU21D;53592;51.402;6.054;2022-10-16T08:47:24;18.22;73.19
65989;HTU21D;53592;51.402;6.054;2022-10-16T08:52:25;18.48;71.32
65989;HTU21D;53592;51.402;6.054;2022-10-16T08:54:55;18.53;71.75
65989;HTU21D;53592;51.402;6.054;2022-10-16T08:57:24;18.70;71.45
65989;HTU21D;53592;51.402;6.054;2022-10-16T08:59:50;18.76;71.51
65989;HTU21D;53592;51.402;6.054;2022-10-16T09:02:27;18.98;70.89
65989;HTU21D;53592;51.402;6.054;2022-10-16T09:13:18;19.41;68.97
65989;HTU21D;53592;51.402;6.054;2022-10-16T09:18:40;19.73;67.49
65989;HTU21D;53592;51.402;6.054;2022-10-16T09:23:47;19.88;66.60
65989;HTU21D;53592;51.402;6.054;2022-10-16T09:26:16;19.77;66.21
65989;HTU21D;53592;51.402;6.054;2022-10-16T09:28:42;19.81;65.69
65989;HTU21D;53592;51.402;6.054;2022-10-16T09:31:16;19.83;65.86
65989;HTU21D;53592;51.402;6.054;2022-10-16T09:33:45;19.85;66.40
65989;HTU21D;53592;51.402;6.054;2022-10-16T09:36:13;19.88;66.33
65989;HTU21D;53592;51.402;6.054;2022-10-16T09:38:39;19.98;66.31
65989;HTU21D;53592;51.402;6.054;2022-10-16T09:43:48;20.22;65.85
65989;HTU21D;53592;51.402;6.054;2022-10-16T09:48:59;20.58;64.76
65989;HTU21D;53592;51.402;6.054;2022-10-16T09:51:29;20.63;64.59
65989;HTU21D;53592;51.402;6.054;2022-10-16T09:53:57;20.65;64.48
65989;HTU21D;53592;51.402;6.054;2022-10-16T09:56:26;20.66;63.43
65989;HTU21D;53592;51.402;6.054;2022-10-16T09:58:55;20.63;63.04
65989;HTU21D;53592;51.402;6.054;2022-10-16T10:01:26;20.64;63.44
65989;HTU21D;53592;51.402;6.054;2022-10-16T10:03:57;20.69;63.33
65989;HTU21D;53592;51.402;6.054;2022-10-16T10:06:41;20.74;63.40
65989;HTU21D;53592;51.402;6.054;2022-10-16T10:09:18;20.80;63.51
65989;HTU21D;53592;51.402;6.054;2022-10-16T10:11:45;20.89;63.54
65989;HTU21D;53592;51.402;6.054;2022-10-16T10:16:47;21.00;61.96
65989;HTU21D;53592;51.402;6.054;2022-10-16T10:19:21;21.07;60.83
65989;HTU21D;53592;51.402;6.054;2022-10-16T10:21:49;21.06;60.88
65989;HTU21D;53592;51.402;6.054;2022-10-16T10:24:16;21.02;61.85
65989;HTU21D;53592;51.402;6.054;2022-10-16T10:27:05;21.03;61.98
65989;HTU21D;53592;51.402;6.054;2022-10-16T10:29:49;21.11;61.47
65989;HTU21D;53592;51.402;6.054;2022-10-16T10:43:19;21.20;61.58
65989;HTU21D;53592;51.402;6.054;2022-10-16T10:45:54;21.29;60.68
65989;HTU21D;53592;51.402;6.054;2022-10-16T10:51:08;21.10;59.86
65989;HTU21D;53592;51.402;6.054;2022-10-16T10:56:41;20.99;60.00
65989;HTU21D;53592;51.402;6.054;2022-10-16T10:59:28;20.88;60.61
65989;HTU21D;53592;51.402;6.054;2022-10-16T11:02:03;20.85;60.77
65989;HTU21D;53592;51.402;6.054;2022-10-16T11:04:59;20.81;61.34
65989;HTU21D;53592;51.402;6.054;2022-10-16T11:07:39;20.93;61.76
65989;HTU21D;53592;51.402;6.054;2022-10-16T11:10:29;21.01;61.12
65989;HTU21D;53592;51.402;6.054;2022-10-16T11:16:19;21.05;61.12
65989;HTU21D;53592;51.402;6.054;2022-10-16T11:18:55;21.17;60.35
65989;HTU21D;53592;51.402;6.054;2022-10-16T11:21:26;21.24;59.99
65989;HTU21D;53592;51.402;6.054;2022-10-16T11:24:18;21.38;59.41
65989;HTU21D;53592;51.402;6.054;2022-10-16T11:26:55;21.45;58.77
65989;HTU21D;53592;51.402;6.054;2022-10-16T11:32:49;21.48;58.43
65989;HTU21D;53592;51.402;6.054;2022-10-16T11:50:28;21.52;58.20
65989;HTU21D;53592;51.402;6.054;2022-10-16T11:55:43;21.32;58.60
65989;HTU21D;53592;51.402;6.054;2022-10-16T11:58:23;21.19;58.59
65989;HTU21D;53592;51.402;6.054;2022-10-16T12:01:04;21.06;59.21
65989;HTU21D;53592;51.402;6.054;2022-10-16T12:03:51;20.98;59.27
65989;HTU21D;53592;51.402;6.054;2022-10-16T12:06:31;20.98;59.91
65989;HTU21D;53592;51.402;6.054;2022-10-16T12:09:00;20.99;59.73
65989;HTU21D;53592;51.402;6.054;2022-10-16T12:17:22;21.13;58.89
65989;HTU21D;53592;51.402;6.054;2022-10-16T12:19:59;21.18;58.25
65989;HTU21D;53592;51.402;6.054;2022-10-16T12:22:29;21.15;57.84
65989;HTU21D;53592;51.402;6.054;2022-10-16T12:24:56;21.08;58.44
65989;HTU21D;53592;51.402;6.054;2022-10-16T12:30:03;21.09;58.61
65989;HTU21D;53592;51.402;6.054;2022-10-16T12:32:31;21.10;58.48
65989;HTU21D;53592;51.402;6.054;2022-10-16T12:34:59;21.16;58.42
65989;HTU21D;53592;51.402;6.054;2022-10-16T12:37:36;21.23;57.67
65989;HTU21D;53592;51.402;6.054;2022-10-16T12:40:26;21.18;58.09
65989;HTU21D;53592;51.402;6.054;2022-10-16T12:42:53;21.10;58.22
65989;HTU21D;53592;51.402;6.054;2022-10-16T12:45:33;20.99;58.43
65989;HTU21D;53592;51.402;6.054;2022-10-16T12:48:02;20.94;58.89
65989;HTU21D;53592;51.402;6.054;2022-10-16T12:50:38;20.95;58.64
65989;HTU21D;53592;51.402;6.054;2022-10-16T12:53:26;21.00;58.40
65989;HTU21D;53592;51.402;6.054;2022-10-16T12:56:03;21.01;57.59
65989;HTU21D;53592;51.402;6.054;2022-10-16T12:58:58;20.95;57.87
65989;HTU21D;53592;51.402;6.054;2022-10-16T13:07:28;21.07;57.96
65989;HTU21D;53592;51.402;6.054;2022-10-16T13:13:00;21.04;59.07
65989;HTU21D;53592;51.402;6.054;2022-10-16T13:15:37;21.03;59.25
65989;HTU21D;53592;51.402;6.054;2022-10-16T13:18:23;20.96;59.26
65989;HTU21D;53592;51.402;6.054;2022-10-16T13:28:59;20.77;60.06
65989;HTU21D;53592;51.402;6.054;2022-10-16T13:31:26;20.75;59.64
65989;HTU21D;53592;51.402;6.054;2022-10-16T13:33:57;20.73;59.41
65989;HTU21D;53592;51.402;6.054;2022-10-16T13:36:27;20.66;59.37
65989;HTU21D;53592;51.402;6.054;2022-10-16T13:41:38;20.55;60.15
65989;HTU21D;53592;51.402;6.054;2022-10-16T13:44:05;20.48;59.92
65989;HTU21D;53592;51.402;6.054;2022-10-16T13:46:30;20.45;59.92
65989;HTU21D;53592;51.402;6.054;2022-10-16T13:49:05;20.45;59.89
65989;HTU21D;53592;51.402;6.054;2022-10-16T13:51:32;20.41;60.15
65989;HTU21D;53592;51.402;6.054;2022-10-16T13:53:58;20.42;60.71
65989;HTU21D;53592;51.402;6.054;2022-10-16T13:56:30;20.43;60.54
65989;HTU21D;53592;51.402;6.054;2022-10-16T13:58:59;20.35;61.03
65989;HTU21D;53592;51.402;6.054;2022-10-16T14:01:41;20.32;61.08
65989;HTU21D;53592;51.402;6.054;2022-10-16T14:04:11;20.34;61.18
65989;HTU21D;53592;51.402;6.054;2022-10-16T14:06:42;20.36;61.42
65989;HTU21D;53592;51.402;6.054;2022-10-16T14:09:25;20.39;61.47
65989;HTU21D;53592;51.402;6.054;2022-10-16T14:12:02;20.44;61.40
65989;HTU21D;53592;51.402;6.054;2022-10-16T14:14:42;20.47;61.86
65989;HTU21D;53592;51.402;6.054;2022-10-16T14:17:16;20.48;61.50
65989;HTU21D;53592;51.402;6.054;2022-10-16T14:19:47;20.49;61.44
65989;HTU21D;53592;51.402;6.054;2022-10-16T14:22:40;20.46;61.57
65989;HTU21D;53592;51.402;6.054;2022-10-16T14:27:44;20.32;61.12
65989;HTU21D;53592;51.402;6.054;2022-10-16T14:30:20;20.31;62.05
65989;HTU21D;53592;51.402;6.054;2022-10-16T14:33:04;20.29;61.28
65989;HTU21D;53592;51.402;6.054;2022-10-16T14:35:39;20.19;61.51
65989;HTU21D;53592;51.402;6.054;2022-10-16T14:38:19;20.18;61.60
65989;HTU21D;53592;51.402;6.054;2022-10-16T14:40:49;20.15;61.88
65989;HTU21D;53592;51.402;6.054;2022-10-16T14:43:22;20.15;61.77
65989;HTU21D;53592;51.402;6.054;2022-10-16T14:45:52;20.11;61.99
65989;HTU21D;53592;51.402;6.054;2022-10-16T14:48:20;20.11;62.03
65989;HTU21D;53592;51.402;6.054;2022-10-16T14:50:46;20.06;61.16
65989;HTU21D;53592;51.402;6.054;2022-10-16T14:53:12;19.99;61.54
65989;HTU21D;53592;51.402;6.054;2022-10-16T14:55:39;19.97;61.85
65989;HTU21D;53592;51.402;6.054;2022-10-16T14:58:07;19.92;62.15
65989;HTU21D;53592;51.402;6.054;2022-10-16T15:00:35;19.90;62.17
65989;HTU21D;53592;51.402;6.054;2022-10-16T15:03:00;19.81;62.41
65989;HTU21D;53592;51.402;6.054;2022-10-16T15:05:27;19.79;62.71
65989;HTU21D;53592;51.402;6.054;2022-10-16T15:07:55;19.76;63.33
65989;HTU21D;53592;51.402;6.054;2022-10-16T15:10:23;19.79;63.35
65989;HTU21D;53592;51.402;6.054;2022-10-16T15:12:49;19.81;63.35
65989;HTU21D;53592;51.402;6.054;2022-10-16T15:15:23;19.85;63.39
65989;HTU21D;53592;51.402;6.054;2022-10-16T15:17:54;19.90;64.11
65989;HTU21D;53592;51.402;6.054;2022-10-16T15:20:35;19.92;64.58
65989;HTU21D;53592;51.402;6.054;2022-10-16T15:23:03;19.94;64.70
65989;HTU21D;53592;51.402;6.054;2022-10-16T15:25:38;19.96;65.21
65989;HTU21D;53592;51.402;6.054;2022-10-16T15:28:05;19.97;66.62
65989;HTU21D;53592;51.402;6.054;2022-10-16T15:30:32;19.94;67.37
65989;HTU21D;53592;51.402;6.054;2022-10-16T15:32:58;19.94;67.31
65989;HTU21D;53592;51.402;6.054;2022-10-16T15:35:23;19.92;67.54
65989;HTU21D;53592;51.402;6.054;2022-10-16T15:37:49;19.97;67.43
65989;HTU21D;53592;51.402;6.054;2022-10-16T15:40:16;19.97;67.42
65989;HTU21D;53592;51.402;6.054;2022-10-16T15:42:42;19.92;67.33
65989;HTU21D;53592;51.402;6.054;2022-10-16T15:45:09;19.85;66.79
65989;HTU21D;53592;51.402;6.054;2022-10-16T15:47:35;19.77;66.99
65989;HTU21D;53592;51.402;6.054;2022-10-16T15:50:01;19.70;66.01
65989;HTU21D;53592;51.402;6.054;2022-10-16T15:52:26;19.67;66.08
65989;HTU21D;53592;51.402;6.054;2022-10-16T15:54:54;19.59;66.31
65989;HTU21D;53592;51.402;6.054;2022-10-16T15:57:19;19.53;66.79
65989;HTU21D;53592;51.402;6.054;2022-10-16T15:59:45;19.52;67.27
65989;HTU21D;53592;51.402;6.054;2022-10-16T16:02:10;19.52;67.72
65989;HTU21D;53592;51.402;6.054;2022-10-16T16:04:36;19.47;67.97
65989;HTU21D;53592;51.402;6.054;2022-10-16T16:07:02;19.44;68.43
65989;HTU21D;53592;51.402;6.054;2022-10-16T16:09:30;19.43;68.78
65989;HTU21D;53592;51.402;6.054;2022-10-16T16:11:56;19.38;68.76
65989;HTU21D;53592;51.402;6.054;2022-10-16T16:14:23;19.31;68.99
65989;HTU21D;53592;51.402;6.054;2022-10-16T16:16:50;19.26;68.98
65989;HTU21D;53592;51.402;6.054;2022-10-16T16:19:16;19.23;69.33
65989;HTU21D;53592;51.402;6.054;2022-10-16T16:21:46;19.16;69.58
65989;HTU21D;53592;51.402;6.054;2022-10-16T16:24:12;19.09;69.92
65989;HTU21D;53592;51.402;6.054;2022-10-16T16:26:37;19.07;70.27
65989;HTU21D;53592;51.402;6.054;2022-10-16T16:29:05;19.01;70.03
65989;HTU21D;53592;51.402;6.054;2022-10-16T16:31:32;18.96;69.71
65989;HTU21D;53592;51.402;6.054;2022-10-16T16:33:58;18.93;69.90
65989;HTU21D;53592;51.402;6.054;2022-10-16T16:36:25;18.93;69.92
65989;HTU21D;53592;51.402;6.054;2022-10-16T16:38:51;18.91;69.89
65989;HTU21D;53592;51.402;6.054;2022-10-16T16:41:20;18.84;69.92
65989;HTU21D;53592;51.402;6.054;2022-10-16T16:43:46;18.73;70.42
65989;HTU21D;53592;51.402;6.054;2022-10-16T16:46:17;18.61;70.44
65989;HTU21D;53592;51.402;6.054;2022-10-16T16:48:44;18.51;70.50
65989;HTU21D;53592;51.402;6.054;2022-10-16T16:51:15;18.43;70.61
65989;HTU21D;53592;51.402;6.054;2022-10-16T16:53:42;18.39;71.10
65989;HTU21D;53592;51.402;6.054;2022-10-16T16:56:08;18.39;71.29
65989;HTU21D;53592;51.402;6.054;2022-10-16T16:58:34;18.37;71.45
65989;HTU21D;53592;51.402;6.054;2022-10-16T17:01:01;18.36;71.51
65989;HTU21D;53592;51.402;6.054;2022-10-16T17:03:34;18.32;71.56
65989;HTU21D;53592;51.402;6.054;2022-10-16T17:06:04;18.26;71.69
65989;HTU21D;53592;51.402;6.054;2022-10-16T17:08:31;18.18;72.06
65989;HTU21D;53592;51.402;6.054;2022-10-16T17:10:57;18.10;72.32
65989;HTU21D;53592;51.402;6.054;2022-10-16T17:13:28;18.03;72.47
65989;HTU21D;53592;51.402;6.054;2022-10-16T17:15:54;17.99;72.61
65989;HTU21D;53592;51.402;6.054;2022-10-16T17:18:22;17.99;72.68
65989;HTU21D;53592;51.402;6.054;2022-10-16T17:20:49;17.99;72.78
65989;HTU21D;53592;51.402;6.054;2022-10-16T17:23:18;17.93;73.01
65989;HTU21D;53592;51.402;6.054;2022-10-16T17:25:44;17.92;73.07
65989;HTU21D;53592;51.402;6.054;2022-10-16T17:28:11;17.89;73.12
65989;HTU21D;53592;51.402;6.054;2022-10-16T17:30:39;17.85;73.38
65989;HTU21D;53592;51.402;6.054;2022-10-16T17:33:06;17.81;73.46
65989;HTU21D;53592;51.402;6.054;2022-10-16T17:35:38;17.80;73.73
65989;HTU21D;53592;51.402;6.054;2022-10-16T17:38:04;17.77;73.66